createdAt,value
2018-04-06T00:01:54.299Z,3.30
2018-04-06T00:04:21.855Z,3.75
2018-04-06T00:06:49.385Z,3.25
2018-04-06T00:09:16.937Z,4.07
2018-04-06T00:11:44.479Z,3.65
2018-04-06T00:14:12.024Z,3.10
2018-04-06T00:16:39.556Z,3.45
2018-04-06T00:19:07.852Z,3.45
2018-04-06T00:21:35.394Z,4.10
2018-04-06T00:24:02.912Z,4.00
2018-04-06T00:26:30.451Z,2.90
2018-04-06T00:28:57.993Z,3.50
2018-04-06T00:31:25.528Z,3.60
2018-04-06T00:33:53.067Z,4.00
2018-04-06T00:36:21.412Z,3.58
2018-04-06T00:38:48.952Z,3.50
2018-04-06T00:41:16.509Z,4.10
2018-04-06T00:43:44.056Z,4.15
2018-04-06T00:46:11.586Z,3.80
2018-04-06T00:48:39.911Z,4.20
2018-04-06T00:51:07.452Z,6.25
2018-04-06T00:53:46.998Z,3.62
2018-04-06T00:56:14.531Z,4.10
2018-04-06T00:58:42.839Z,5.20
2018-04-06T01:01:10.373Z,3.58
2018-04-06T01:03:38.692Z,3.58
2018-04-06T01:06:06.252Z,4.75
2018-04-06T01:08:33.843Z,4.78
2018-04-06T01:11:01.378Z,5.47
2018-04-06T01:13:28.907Z,5.35
2018-04-06T01:15:56.459Z,4.12
2018-04-06T01:18:23.993Z,4.10
2018-04-06T01:20:52.297Z,5.35
2018-04-06T01:23:19.824Z,4.85
2018-04-06T01:25:47.372Z,3.50
2018-04-06T01:28:14.916Z,3.30
2018-04-06T01:30:43.416Z,4.22
2018-04-06T01:33:10.969Z,4.07
2018-04-06T01:35:38.498Z,3.05
2018-04-06T01:38:06.029Z,4.40
2018-04-06T01:40:34.333Z,3.00
2018-04-06T01:43:01.885Z,3.95
2018-04-06T01:45:29.434Z,4.78
2018-04-06T01:47:56.988Z,2.92
2018-04-06T01:50:25.307Z,3.20
2018-04-06T01:52:52.903Z,3.20
2018-04-06T01:55:20.428Z,3.30
2018-04-06T01:57:47.985Z,2.87
2018-04-06T02:00:15.542Z,4.37
2018-04-06T02:02:43.195Z,4.00
2018-04-06T02:05:10.729Z,3.62
2018-04-06T02:07:38.261Z,4.10
2018-04-06T02:10:05.817Z,3.90
2018-04-06T02:12:34.872Z,4.10
2018-04-06T02:15:02.426Z,4.00
2018-04-06T02:17:29.951Z,4.72
2018-04-06T02:19:58.264Z,3.40
2018-04-06T02:22:25.805Z,4.32
2018-04-06T02:24:53.365Z,3.90
2018-04-06T02:27:20.890Z,3.80
2018-04-06T02:29:48.433Z,4.43
2018-04-06T02:32:15.951Z,4.40
2018-04-06T02:34:43.544Z,3.75
2018-04-06T02:37:11.086Z,4.22
2018-04-06T02:39:38.649Z,5.03
2018-04-06T02:42:06.219Z,3.62
2018-04-06T02:44:33.769Z,3.25
2018-04-06T02:47:01.322Z,4.03
2018-04-06T02:49:28.872Z,3.80
2018-04-06T02:51:56.405Z,3.05
2018-04-06T02:54:24.716Z,3.65
2018-04-06T02:56:52.265Z,3.15
2018-04-06T02:59:19.800Z,4.30
2018-04-06T03:01:48.122Z,4.35
2018-04-06T03:04:15.641Z,3.92
2018-04-06T03:06:43.955Z,4.57
2018-04-06T03:09:11.485Z,4.85
2018-04-06T03:11:39.816Z,4.78
2018-04-06T03:14:07.369Z,4.37
2018-04-06T03:16:34.926Z,4.50
2018-04-06T03:19:02.483Z,4.30
2018-04-06T03:21:30.021Z,5.75
2018-04-06T03:23:58.332Z,4.60
2018-04-06T03:26:25.850Z,5.15
2018-04-06T03:28:53.386Z,4.95
2018-04-06T03:31:20.937Z,4.72
2018-04-06T03:33:48.478Z,5.28
2018-04-06T03:36:16.024Z,4.97
2018-04-06T03:38:43.552Z,5.55
2018-04-06T03:41:11.868Z,4.80
2018-04-06T03:43:39.401Z,5.45
2018-04-06T03:46:07.722Z,6.10
2018-04-06T03:48:35.248Z,5.00
2018-04-06T03:51:02.817Z,7.35
2018-04-06T03:53:30.356Z,5.97
2018-04-06T03:55:57.920Z,5.43
2018-04-06T03:58:25.464Z,5.62
2018-04-06T04:00:53.020Z,5.53
2018-04-06T04:03:20.560Z,5.50
2018-04-06T04:05:48.095Z,6.10
2018-04-06T04:08:16.436Z,5.25
2018-04-06T04:10:43.949Z,5.80
2018-04-06T04:13:12.272Z,5.82
2018-04-06T04:15:39.800Z,5.53
2018-04-06T04:18:07.354Z,6.28
2018-04-06T04:20:34.879Z,5.05
2018-04-06T04:23:03.193Z,5.35
2018-04-06T04:25:30.721Z,4.43
2018-04-06T04:27:59.040Z,5.15
2018-04-06T04:30:26.586Z,4.65
2018-04-06T04:32:54.124Z,6.82
2018-04-06T04:35:21.688Z,6.18
2018-04-06T04:37:49.216Z,5.40
2018-04-06T04:40:17.525Z,5.35
2018-04-06T04:42:45.069Z,5.37
2018-04-06T04:45:12.612Z,5.68
2018-04-06T04:47:46.030Z,6.18
2018-04-06T04:50:13.584Z,6.03
2018-04-06T04:52:41.126Z,6.20
2018-04-06T04:55:09.452Z,8.48
2018-04-06T04:57:37.001Z,7.55
2018-04-06T05:00:04.532Z,9.00
2018-04-06T05:02:32.095Z,10.65
2018-04-06T05:04:59.640Z,9.45
2018-04-06T05:07:27.195Z,8.52
2018-04-06T05:09:54.718Z,9.82
2018-04-06T05:12:23.039Z,8.02
2018-04-06T05:14:50.564Z,8.73
2018-04-06T05:17:19.053Z,8.65
2018-04-06T05:19:46.597Z,8.52
2018-04-06T05:22:14.920Z,9.00
2018-04-06T05:24:42.457Z,8.60
2018-04-06T05:27:10.003Z,9.60
2018-04-06T05:29:39.015Z,8.38
2018-04-06T05:32:06.552Z,9.32
2018-04-06T05:34:34.088Z,8.77
2018-04-06T05:37:01.671Z,9.93
2018-04-06T05:39:29.205Z,8.57
2018-04-06T05:41:56.757Z,10.23
2018-04-06T05:44:24.301Z,9.18
2018-04-06T05:46:52.644Z,8.73
2018-04-06T05:49:20.182Z,8.50
2018-04-06T05:51:47.742Z,9.68
2018-04-06T05:54:15.273Z,8.30
2018-04-06T05:56:42.852Z,8.52
2018-04-06T05:59:10.403Z,9.50
2018-04-06T06:01:37.930Z,9.13
2018-04-06T06:04:06.225Z,8.80
2018-04-06T06:06:33.790Z,10.65
2018-04-06T06:09:01.321Z,8.93
2018-04-06T06:11:29.650Z,10.05
2018-04-06T06:13:57.191Z,9.57
2018-04-06T06:16:24.746Z,8.93
2018-04-06T06:18:52.291Z,8.50
2018-04-06T06:21:20.620Z,8.15
2018-04-06T06:23:48.147Z,8.45
2018-04-06T06:26:15.692Z,8.05
2018-04-06T06:28:43.243Z,8.25
2018-04-06T06:31:11.557Z,10.90
2018-04-06T06:33:39.104Z,7.97
2018-04-06T06:36:07.096Z,8.18
2018-04-06T06:38:34.620Z,8.85
2018-04-06T06:41:02.161Z,8.30
2018-04-06T06:43:30.482Z,8.55
2018-04-06T06:45:58.008Z,8.15
2018-04-06T06:48:25.558Z,8.55
2018-04-06T06:50:53.117Z,9.23
2018-04-06T06:53:20.682Z,8.77
2018-04-06T06:55:48.253Z,9.15
2018-04-06T06:58:16.561Z,9.13
2018-04-06T07:00:44.117Z,9.38
2018-04-06T07:03:11.648Z,9.18
2018-04-06T07:05:39.224Z,9.73
2018-04-06T07:08:06.816Z,9.25
2018-04-06T07:10:34.385Z,9.20
2018-04-06T07:13:01.921Z,8.90
2018-04-06T07:15:29.488Z,9.43
2018-04-06T07:17:57.029Z,9.80
2018-04-06T07:20:25.552Z,8.90
2018-04-06T07:22:53.876Z,10.23
2018-04-06T07:25:21.415Z,10.00
2018-04-06T07:27:49.651Z,10.82
2018-04-06T07:30:17.214Z,8.48
2018-04-06T07:32:44.776Z,10.20
2018-04-06T07:35:12.301Z,9.25
2018-04-06T07:37:39.864Z,10.45
2018-04-06T07:40:07.396Z,9.95
2018-04-06T07:42:35.940Z,8.77
2018-04-06T07:45:03.477Z,9.35
2018-04-06T07:47:31.852Z,9.50
2018-04-06T07:50:00.157Z,9.40
2018-04-06T07:52:27.749Z,9.88
2018-04-06T07:54:55.300Z,8.93
2018-04-06T07:57:22.841Z,9.70
2018-04-06T07:59:51.161Z,9.07
2018-04-06T08:02:18.705Z,9.50
2018-04-06T08:04:46.266Z,9.07
2018-04-06T08:07:13.838Z,9.47
2018-04-06T08:09:41.408Z,8.47
2018-04-06T08:12:08.976Z,9.40
2018-04-06T08:14:36.544Z,9.23
2018-04-06T08:17:04.080Z,8.87
2018-04-06T08:19:31.652Z,8.10
2018-04-06T08:21:59.200Z,9.00
2018-04-06T08:24:26.739Z,8.57
2018-04-06T08:26:54.309Z,8.80
2018-04-06T08:29:21.885Z,8.87
2018-04-06T08:31:49.440Z,8.77
2018-04-06T08:34:16.971Z,8.27
2018-04-06T08:36:44.540Z,8.47
2018-04-06T08:39:12.074Z,9.10
2018-04-06T08:41:40.388Z,8.77
2018-04-06T08:44:07.923Z,7.93
2018-04-06T08:46:35.473Z,9.37
2018-04-06T08:49:03.785Z,8.60
2018-04-06T08:51:31.340Z,8.83
2018-04-06T08:53:58.875Z,8.00
2018-04-06T08:56:26.451Z,8.97
2018-04-06T08:58:53.990Z,8.50
2018-04-06T09:01:21.530Z,7.53
2018-04-06T09:03:49.090Z,6.97
2018-04-06T09:06:16.616Z,7.20
2018-04-06T09:08:44.939Z,7.17
2018-04-06T09:11:12.466Z,6.80
2018-04-06T09:13:40.054Z,6.40
2018-04-06T09:16:07.580Z,7.60
2018-04-06T09:18:35.908Z,6.73
2018-04-06T09:21:03.483Z,6.70
2018-04-06T09:23:31.010Z,6.40
2018-04-06T09:25:58.552Z,5.87
2018-04-06T09:28:26.081Z,6.40
2018-04-06T09:30:54.413Z,5.90
2018-04-06T09:33:21.964Z,5.10
2018-04-06T09:35:49.504Z,5.60
2018-04-06T09:38:17.040Z,6.43
2018-04-06T09:40:45.361Z,5.80
2018-04-06T09:43:12.918Z,5.73
2018-04-06T09:45:40.473Z,6.43
2018-04-06T09:48:07.998Z,5.70
2018-04-06T09:50:36.317Z,6.00
2018-04-06T09:53:03.849Z,6.07
2018-04-06T09:55:32.172Z,5.57
2018-04-06T09:57:59.726Z,6.00
2018-04-06T10:00:32.941Z,5.37
2018-04-06T10:03:03.194Z,6.13
2018-04-06T10:05:31.520Z,6.67
2018-04-06T10:07:59.069Z,5.80
2018-04-06T10:10:26.642Z,5.40
2018-04-06T10:12:54.201Z,5.73
2018-04-06T10:15:21.758Z,5.90
2018-04-06T10:17:49.315Z,5.30
2018-04-06T10:20:16.849Z,5.00
2018-04-06T10:22:45.141Z,4.90
2018-04-06T10:25:13.453Z,4.83
2018-04-06T10:27:41.004Z,4.50
2018-04-06T10:30:08.542Z,4.47
2018-04-06T10:32:36.088Z,4.50
2018-04-06T10:35:03.645Z,4.80
2018-04-06T10:37:31.177Z,4.60
2018-04-06T10:39:58.737Z,4.47
2018-04-06T10:42:26.276Z,3.70
2018-04-06T10:44:53.826Z,3.00
2018-04-06T10:47:22.228Z,3.53
2018-04-06T10:49:49.767Z,4.23
2018-04-06T10:52:17.327Z,4.00
2018-04-06T10:54:44.844Z,4.50
2018-04-06T10:57:12.401Z,4.30
2018-04-06T10:59:39.938Z,3.90
2018-04-06T11:02:08.281Z,3.83
2018-04-06T11:04:35.813Z,3.80
2018-04-06T11:07:03.361Z,3.67
2018-04-06T11:09:30.884Z,4.20
2018-04-06T11:11:59.940Z,5.00
2018-04-06T11:14:27.474Z,4.80
2018-04-06T11:16:55.064Z,4.63
2018-04-06T11:19:22.640Z,5.23
2018-04-06T11:21:50.208Z,5.13
2018-04-06T11:24:17.754Z,4.57
2018-04-06T11:26:45.279Z,4.10
2018-04-06T11:29:12.844Z,4.50
2018-04-06T11:31:40.393Z,4.27
2018-04-06T11:34:07.947Z,4.20
2018-04-06T11:36:35.513Z,4.07
2018-04-06T11:39:03.081Z,4.30
2018-04-06T11:41:30.625Z,4.00
2018-04-06T11:43:58.948Z,4.97
2018-04-06T11:46:26.502Z,4.33
2018-04-06T11:48:54.056Z,4.30
2018-04-06T11:51:22.376Z,5.17
2018-04-06T11:53:49.958Z,5.20
2018-04-06T11:56:17.488Z,5.10
2018-04-06T11:58:45.435Z,4.30
2018-04-06T12:01:12.997Z,4.40
2018-04-06T12:03:40.536Z,3.90
2018-04-06T12:06:08.860Z,4.60
2018-04-06T12:08:36.412Z,4.37
2018-04-06T12:11:03.989Z,3.30
2018-04-06T12:13:31.519Z,3.70
2018-04-06T12:15:59.048Z,3.40
2018-04-06T12:18:27.368Z,4.10
2018-04-06T12:20:54.913Z,3.90
2018-04-06T12:23:22.445Z,3.63
2018-04-06T12:25:50.765Z,3.90
2018-04-06T12:28:18.324Z,4.33
2018-04-06T12:30:45.874Z,5.00
2018-04-06T12:33:13.457Z,3.60
2018-04-06T12:35:41.004Z,3.90
2018-04-06T12:38:08.553Z,4.13
2018-04-06T12:40:36.097Z,4.30
2018-04-06T12:43:04.431Z,3.93
2018-04-06T12:45:31.968Z,4.43
2018-04-06T12:48:00.367Z,4.50
2018-04-06T12:50:27.907Z,5.00
2018-04-06T12:52:55.433Z,4.17
2018-04-06T12:55:23.748Z,4.60
2018-04-06T12:57:51.318Z,5.60
2018-04-06T13:00:18.857Z,5.40
2018-04-06T13:02:46.414Z,4.83
2018-04-06T13:05:14.001Z,4.97
2018-04-06T13:07:41.563Z,4.60
2018-04-06T13:10:09.129Z,5.20
2018-04-06T13:12:36.689Z,4.27
2018-04-06T13:15:04.242Z,4.40
2018-04-06T13:17:31.872Z,4.70
2018-04-06T13:20:00.164Z,5.50
2018-04-06T13:22:27.701Z,4.83
2018-04-06T13:24:55.255Z,5.13
2018-04-06T13:27:22.806Z,4.13
2018-04-06T13:29:51.131Z,3.73
2018-04-06T13:32:18.665Z,5.10
2018-04-06T13:34:47.060Z,4.70
2018-04-06T13:37:14.609Z,4.80
2018-04-06T13:39:42.165Z,5.57
2018-04-06T13:42:09.688Z,5.67
2018-04-06T13:44:38.048Z,6.00
2018-04-06T13:47:05.576Z,5.73
2018-04-06T13:49:33.107Z,4.73
2018-04-06T13:52:00.681Z,5.90
2018-04-06T13:54:28.210Z,5.87
2018-04-06T13:56:56.532Z,5.00
2018-04-06T13:59:24.093Z,6.03
2018-04-06T14:01:51.651Z,5.97
2018-04-06T14:04:19.197Z,5.60
2018-04-06T14:06:46.753Z,5.83
2018-04-06T14:09:14.293Z,5.13
2018-04-06T14:11:41.869Z,6.20
2018-04-06T14:14:09.424Z,5.57
2018-04-06T14:16:36.957Z,6.20
2018-04-06T14:19:05.285Z,4.93
2018-04-06T14:21:32.823Z,6.10
2018-04-06T14:24:00.397Z,5.90
2018-04-06T14:26:27.949Z,5.77
2018-04-06T14:28:55.541Z,6.80
2018-04-06T14:31:23.147Z,5.57
2018-04-06T14:33:51.453Z,5.67
2018-04-06T14:36:19.021Z,6.83
2018-04-06T14:38:46.584Z,6.00
2018-04-06T14:41:14.138Z,5.27
2018-04-06T14:43:41.668Z,6.17
2018-04-06T14:46:10.065Z,4.93
2018-04-06T14:48:37.544Z,5.77
2018-04-06T14:51:05.099Z,5.60
2018-04-06T14:53:32.660Z,6.00
2018-04-06T14:56:00.215Z,6.17
2018-04-06T14:58:27.744Z,5.90
2018-04-06T15:00:56.064Z,6.60
2018-04-06T15:03:23.634Z,6.03
2018-04-06T15:05:51.181Z,4.93
2018-04-06T15:08:18.738Z,6.00
2018-04-06T15:10:46.271Z,6.50
2018-04-06T15:13:14.601Z,6.30
2018-04-06T15:15:42.157Z,6.10
2018-04-06T15:18:09.752Z,4.70
2018-04-06T15:20:38.054Z,5.60
2018-04-06T15:23:05.611Z,6.17
2018-04-06T15:25:33.158Z,5.33
2018-04-06T15:28:01.461Z,6.50
2018-04-06T15:30:29.020Z,5.40
2018-04-06T15:32:56.552Z,6.33
2018-04-06T15:35:24.865Z,5.07
2018-04-06T15:37:52.403Z,5.43
2018-04-06T15:40:19.963Z,5.37
2018-04-06T15:42:47.510Z,6.07
2018-04-06T15:45:15.829Z,5.50
2018-04-06T15:47:43.349Z,6.30
2018-04-06T15:50:11.653Z,5.90
2018-04-06T15:52:39.223Z,5.80
2018-04-06T15:55:06.759Z,6.03
2018-04-06T15:57:34.313Z,5.17
2018-04-06T16:00:02.661Z,5.20
2018-04-06T16:02:30.197Z,5.30
2018-04-06T16:04:57.745Z,6.00
2018-04-06T16:07:25.296Z,4.70
2018-04-06T16:09:52.831Z,5.83
2018-04-06T16:12:20.380Z,5.67
2018-04-06T16:14:48.682Z,5.00
2018-04-06T16:17:16.237Z,4.63
2018-04-06T16:19:43.789Z,4.70
2018-04-06T16:22:11.345Z,4.30
2018-04-06T16:24:39.938Z,5.70
2018-04-06T16:27:10.157Z,4.80
2018-04-06T16:29:37.929Z,4.07
2018-04-06T16:32:05.483Z,5.03
2018-04-06T16:34:33.041Z,5.97
2018-04-06T16:37:00.573Z,4.50
2018-04-06T16:39:28.148Z,5.37
2018-04-06T16:41:56.461Z,5.30
2018-04-06T16:44:24.010Z,4.00
2018-04-06T16:46:51.558Z,4.57
2018-04-06T16:49:19.112Z,4.87
2018-04-06T16:51:46.640Z,4.37
2018-04-06T16:54:14.962Z,4.73
2018-04-06T16:56:42.616Z,5.30
2018-04-06T16:59:10.204Z,6.10
2018-04-06T17:01:38.139Z,5.00
2018-04-06T17:04:05.677Z,4.93
2018-04-06T17:06:33.236Z,5.83
2018-04-06T17:09:01.634Z,4.90
2018-04-06T17:11:29.177Z,5.07
2018-04-06T17:13:56.720Z,5.00
2018-04-06T17:16:25.067Z,5.67
2018-04-06T17:18:52.602Z,4.87
2018-04-06T17:21:20.164Z,5.97
2018-04-06T17:23:47.704Z,5.73
2018-04-06T17:26:15.259Z,5.47
2018-04-06T17:28:42.802Z,4.40
2018-04-06T17:31:11.130Z,4.80
2018-04-06T17:33:38.669Z,5.30
2018-04-06T17:36:06.241Z,5.87
2018-04-06T17:38:33.818Z,5.10
2018-04-06T17:41:01.421Z,5.07
2018-04-06T17:43:29.740Z,5.53
2018-04-06T17:45:57.309Z,4.60
2018-04-06T17:48:25.691Z,4.73
2018-04-06T17:50:53.269Z,5.73
2018-04-06T17:53:20.820Z,6.60
2018-04-06T17:55:48.361Z,5.43
2018-04-06T17:58:15.910Z,5.37
2018-04-06T18:00:43.480Z,5.70
2018-04-06T18:03:11.025Z,5.60
2018-04-06T18:05:38.577Z,5.97
2018-04-06T18:08:06.151Z,6.30
2018-04-06T18:10:33.717Z,6.25
2018-04-06T18:13:01.296Z,5.90
2018-04-06T18:15:28.857Z,5.85
2018-04-06T18:17:56.415Z,5.62
2018-04-06T18:20:23.969Z,5.25
2018-04-06T18:22:51.540Z,5.50
2018-04-06T18:25:19.085Z,5.90
2018-04-06T18:27:46.636Z,6.50
2018-04-06T18:30:14.196Z,5.28
2018-04-06T18:32:41.784Z,4.72
2018-04-06T18:35:09.340Z,5.57
2018-04-06T18:37:36.923Z,6.12
2018-04-06T18:40:04.467Z,6.30
2018-04-06T18:42:32.037Z,5.22
2018-04-06T18:44:59.602Z,6.43
2018-04-06T18:47:27.926Z,5.82
2018-04-06T18:49:55.464Z,6.15
2018-04-06T18:52:23.785Z,6.40
2018-04-06T18:54:51.357Z,6.40
2018-04-06T18:57:18.917Z,5.87
2018-04-06T18:59:46.501Z,6.40
2018-04-06T19:02:14.050Z,6.47
2018-04-06T19:04:41.610Z,6.32
2018-04-06T19:07:09.158Z,6.25
2018-04-06T19:09:36.747Z,6.28
2018-04-06T19:12:05.058Z,7.10
2018-04-06T19:14:32.645Z,5.50
2018-04-06T19:17:00.197Z,6.32
2018-04-06T19:19:27.771Z,6.82
2018-04-06T19:21:55.321Z,7.05
2018-04-06T19:24:22.881Z,7.10
2018-04-06T19:26:50.511Z,6.90
2018-04-06T19:29:18.119Z,6.30
2018-04-06T19:31:45.660Z,5.87
2018-04-06T19:34:13.205Z,6.85
2018-04-06T19:36:40.769Z,6.62
2018-04-06T19:39:08.341Z,5.93
2018-04-06T19:41:35.909Z,6.57
2018-04-06T19:44:03.444Z,6.62
2018-04-06T19:46:30.995Z,6.47
2018-04-06T19:48:58.536Z,6.12
2018-04-06T19:51:27.880Z,8.27
2018-04-06T19:53:55.448Z,6.97
2018-04-06T19:56:23.061Z,6.93
2018-04-06T19:58:51.392Z,7.90
2018-04-06T20:01:18.921Z,6.20
2018-04-06T20:03:46.485Z,6.30
2018-04-06T20:06:14.061Z,6.72
2018-04-06T20:08:41.598Z,6.32
2018-04-06T20:11:09.148Z,6.55
2018-04-06T20:13:36.682Z,5.50
2018-04-06T20:16:05.008Z,6.07
2018-04-06T20:18:32.596Z,6.62
2018-04-06T20:21:00.127Z,6.40
2018-04-06T20:23:27.705Z,6.62
2018-04-06T20:25:55.229Z,6.87
2018-04-06T20:28:22.820Z,6.57
2018-04-06T20:30:50.366Z,6.62
2018-04-06T20:33:17.921Z,6.40
2018-04-06T20:35:45.487Z,5.68
2018-04-06T20:38:13.016Z,6.35
2018-04-06T20:40:41.360Z,7.32
2018-04-06T20:43:08.991Z,6.43
2018-04-06T20:45:36.548Z,8.52
2018-04-06T20:48:04.100Z,6.97
2018-04-06T20:50:31.648Z,7.00
2018-04-06T20:52:59.208Z,6.00
2018-04-06T20:55:26.800Z,6.72
2018-04-06T20:57:54.331Z,6.53
2018-04-06T21:00:21.901Z,6.25
2018-04-06T21:02:49.443Z,6.40
2018-04-06T21:05:17.765Z,6.50
2018-04-06T21:07:45.320Z,6.45
2018-04-06T21:10:12.880Z,6.28
2018-04-06T21:12:40.428Z,5.55
2018-04-06T21:15:07.987Z,7.03
2018-04-06T21:17:35.543Z,6.90
2018-04-06T21:20:03.074Z,6.55
2018-04-06T21:22:31.403Z,7.12
2018-04-06T21:25:00.471Z,6.22
2018-04-06T21:27:28.057Z,6.82
2018-04-06T21:29:55.604Z,6.15
2018-04-06T21:32:23.201Z,5.60
2018-04-06T21:34:50.730Z,6.40
2018-04-06T21:37:18.284Z,6.57
2018-04-06T21:39:45.815Z,6.55
2018-04-06T21:42:13.352Z,6.32
2018-04-06T21:44:40.911Z,7.20
2018-04-06T21:47:08.434Z,7.40
2018-04-06T21:49:35.987Z,6.32
2018-04-06T21:52:03.520Z,6.75
2018-04-06T21:54:31.080Z,6.90
2018-04-06T21:56:58.615Z,6.57
2018-04-06T21:59:26.937Z,6.10
2018-04-06T22:01:54.469Z,6.68
2018-04-06T22:04:22.840Z,7.20
2018-04-06T22:06:51.157Z,6.85
2018-04-06T22:09:18.729Z,7.30
2018-04-06T22:11:46.258Z,5.85
2018-04-06T22:14:13.832Z,7.10
2018-04-06T22:16:41.370Z,6.40
2018-04-06T22:19:08.937Z,7.00
2018-04-06T22:21:36.496Z,7.25
2018-04-06T22:24:04.022Z,6.85
2018-04-06T22:26:31.741Z,6.57
2018-04-06T22:28:59.287Z,7.68
2018-04-06T22:31:26.846Z,6.90
2018-04-06T22:33:54.386Z,7.18
2018-04-06T22:36:22.719Z,8.18
2018-04-06T22:38:50.257Z,8.23
2018-04-06T22:41:17.797Z,6.45
2018-04-06T22:43:45.366Z,7.57
2018-04-06T22:46:12.893Z,6.62
2018-04-06T22:48:41.232Z,7.22
2018-04-06T22:51:08.780Z,7.57
2018-04-06T22:53:36.329Z,7.60
2018-04-06T22:56:03.854Z,6.65
2018-04-06T22:58:32.165Z,6.75
2018-04-06T23:00:59.724Z,6.90
2018-04-06T23:03:27.276Z,7.55
2018-04-06T23:05:54.936Z,6.82
2018-04-06T23:08:22.503Z,7.25
2018-04-06T23:10:50.024Z,7.32
2018-04-06T23:13:18.320Z,7.45
2018-04-06T23:15:46.644Z,6.87
2018-04-06T23:18:14.191Z,7.82
2018-04-06T23:20:41.772Z,7.37
2018-04-06T23:23:09.305Z,6.90
2018-04-06T23:25:36.849Z,7.37
2018-04-06T23:28:04.425Z,7.35
2018-04-06T23:30:31.961Z,8.02
2018-04-06T23:32:59.530Z,8.32
2018-04-06T23:35:27.066Z,8.10
2018-04-06T23:37:55.375Z,7.65
2018-04-06T23:40:22.946Z,8.30
2018-04-06T23:42:50.508Z,7.62
2018-04-06T23:45:18.054Z,8.07
2018-04-06T23:47:45.606Z,8.50
2018-04-06T23:50:13.160Z,8.30
2018-04-06T23:52:40.741Z,8.10
2018-04-06T23:55:08.316Z,8.77
2018-04-06T23:57:35.867Z,8.07
